createdAt,value
2023-05-21T00:00:48.921Z,16.49
2023-05-21T00:04:01.776Z,16.82
2023-05-21T00:07:15.404Z,16.72
2023-05-21T00:10:28.154Z,16.88
2023-05-21T00:13:40.539Z,16.82
2023-05-21T00:16:53.227Z,16.79
2023-05-21T00:20:07.452Z,16.74
2023-05-21T00:23:21.541Z,16.79
2023-05-21T00:26:34.137Z,16.80
2023-05-21T00:29:47.273Z,16.82
2023-05-21T00:33:02.543Z,16.65
2023-05-21T00:36:15.626Z,16.64
2023-05-21T00:39:28.418Z,16.56
2023-05-21T00:42:41.650Z,16.38
2023-05-21T00:45:56.362Z,16.45
2023-05-21T00:49:09.149Z,16.40
2023-05-21T00:52:21.680Z,16.41
2023-05-21T00:55:34.560Z,16.35
2023-05-21T00:58:47.975Z,16.43
2023-05-21T01:02:05.541Z,16.31
2023-05-21T01:05:18.071Z,16.36
2023-05-21T01:08:30.785Z,16.41
2023-05-21T01:11:45.102Z,16.29
2023-05-21T01:14:59.663Z,16.08
2023-05-21T01:18:12.289Z,16.11
2023-05-21T01:21:25.340Z,16.01
2023-05-21T01:24:38.039Z,15.92
2023-05-21T01:27:51.236Z,15.83
2023-05-21T01:31:19.673Z,15.80
2023-05-21T01:34:42.552Z,15.68
2023-05-21T01:38:16.717Z,15.69
2023-05-21T01:41:29.965Z,15.61
2023-05-21T01:44:42.370Z,15.46
2023-05-21T01:47:55.278Z,15.46
2023-05-21T01:51:07.768Z,15.44
2023-05-21T01:54:22.033Z,15.30
2023-05-21T01:57:34.442Z,15.25
2023-05-21T02:00:47.209Z,15.29
2023-05-21T02:04:00.072Z,15.17
2023-05-21T02:07:14.562Z,15.28
2023-05-21T02:10:27.325Z,15.03
2023-05-21T02:13:42.665Z,15.20
2023-05-21T02:16:55.821Z,15.10
2023-05-21T02:20:12.043Z,15.26
2023-05-21T02:23:25.317Z,15.15
2023-05-21T02:26:37.769Z,15.17
2023-05-21T02:29:50.475Z,15.14
2023-05-21T02:33:02.981Z,15.13
2023-05-21T02:36:19.043Z,15.05
2023-05-21T02:39:31.524Z,15.10
2023-05-21T02:42:44.274Z,14.99
2023-05-21T02:45:57.454Z,14.98
2023-05-21T02:49:10.831Z,14.89
2023-05-21T02:52:24.182Z,15.03
2023-05-21T02:55:37.364Z,15.01
2023-05-21T02:58:49.893Z,14.92
2023-05-21T03:02:02.776Z,14.95
2023-05-21T03:05:15.390Z,14.89
2023-05-21T03:08:28.210Z,14.89
2023-05-21T03:11:41.028Z,15.03
2023-05-21T03:14:53.673Z,15.12
2023-05-21T03:18:06.228Z,15.05
2023-05-21T03:21:22.664Z,15.31
2023-05-21T03:24:35.344Z,15.36
2023-05-21T03:27:48.922Z,15.42
2023-05-21T03:31:05.870Z,15.56
2023-05-21T03:34:20.549Z,15.73
2023-05-21T03:37:33.583Z,15.76
2023-05-21T03:40:46.540Z,15.85
2023-05-21T03:43:58.979Z,16.05
2023-05-21T03:47:12.666Z,16.18
2023-05-21T03:50:25.094Z,16.21
2023-05-21T03:53:37.814Z,16.33
2023-05-21T03:56:50.957Z,16.33
2023-05-21T04:00:06.354Z,16.36
2023-05-21T04:03:28.197Z,16.51
2023-05-21T04:06:42.418Z,16.51
2023-05-21T04:09:55.124Z,16.53
2023-05-21T04:13:07.823Z,16.33
2023-05-21T04:16:20.269Z,16.55
2023-05-21T04:19:33.219Z,16.53
2023-05-21T04:22:45.815Z,16.65
2023-05-21T04:25:59.092Z,16.67
2023-05-21T04:29:11.570Z,16.64
2023-05-21T04:32:24.580Z,16.75
2023-05-21T04:35:37.151Z,16.80
2023-05-21T04:38:50.099Z,16.78
2023-05-21T04:42:03.415Z,16.92
2023-05-21T04:45:17.738Z,17.03
2023-05-21T04:48:30.728Z,17.10
2023-05-21T04:51:43.384Z,17.16
2023-05-21T04:54:55.760Z,17.20
2023-05-21T04:58:10.918Z,17.34
2023-05-21T05:01:23.865Z,17.45
2023-05-21T05:04:36.675Z,17.49
2023-05-21T05:07:49.251Z,17.62
2023-05-21T05:11:02.436Z,17.69
2023-05-21T05:14:14.822Z,17.79
2023-05-21T05:17:27.748Z,17.86
2023-05-21T05:20:40.229Z,17.86
2023-05-21T05:23:52.945Z,17.98
2023-05-21T05:27:06.777Z,18.16
2023-05-21T05:30:20.385Z,18.22
2023-05-21T05:33:32.996Z,18.22
2023-05-21T05:36:45.753Z,18.37
2023-05-21T05:39:58.264Z,18.44
2023-05-21T05:43:10.967Z,18.44
2023-05-21T05:46:23.457Z,18.63
2023-05-21T05:49:37.173Z,18.72
2023-05-21T05:52:49.691Z,18.87
2023-05-21T05:56:02.624Z,18.99
2023-05-21T05:59:16.513Z,19.13
2023-05-21T06:02:32.601Z,19.31
2023-05-21T06:05:45.410Z,19.35
2023-05-21T06:08:57.837Z,19.39
2023-05-21T06:12:14.695Z,19.42
2023-05-21T06:15:27.601Z,19.55
2023-05-21T06:18:41.113Z,19.67
2023-05-21T06:21:53.793Z,19.76
2023-05-21T06:25:07.186Z,19.87
2023-05-21T06:28:19.679Z,19.89
2023-05-21T06:31:33.575Z,19.92
2023-05-21T06:34:46.230Z,20.10
2023-05-21T06:37:58.918Z,20.15
2023-05-21T06:41:11.291Z,20.27
2023-05-21T06:44:26.922Z,20.29
2023-05-21T06:47:41.316Z,20.43
2023-05-21T06:50:54.172Z,20.39
2023-05-21T06:54:07.496Z,20.46
2023-05-21T06:57:20.956Z,20.64
2023-05-21T07:00:33.498Z,20.76
2023-05-21T07:03:46.285Z,20.87
2023-05-21T07:06:58.772Z,20.86
2023-05-21T07:10:11.475Z,20.94
2023-05-21T07:13:23.935Z,21.05
2023-05-21T07:16:36.776Z,21.10
2023-05-21T07:19:49.246Z,21.18
2023-05-21T07:23:02.009Z,21.36
2023-05-21T07:26:14.399Z,21.48
2023-05-21T07:29:27.540Z,21.60
2023-05-21T07:32:40.169Z,21.60
2023-05-21T07:35:52.989Z,21.84
2023-05-21T07:39:06.056Z,21.91
2023-05-21T07:42:19.121Z,22.05
2023-05-21T07:45:31.684Z,22.12
2023-05-21T07:48:44.598Z,21.99
2023-05-21T07:51:57.378Z,22.34
2023-05-21T07:55:10.382Z,22.28
2023-05-21T07:58:23.617Z,22.29
2023-05-21T08:01:37.677Z,22.38
2023-05-21T08:04:50.430Z,22.48
2023-05-21T08:08:02.863Z,22.71
2023-05-21T08:11:15.760Z,22.77
2023-05-21T08:14:28.557Z,22.73
2023-05-21T08:17:41.914Z,22.60
2023-05-21T08:20:55.873Z,22.95
2023-05-21T08:24:08.947Z,22.99
2023-05-21T08:27:21.376Z,23.11
2023-05-21T08:30:34.764Z,23.24
2023-05-21T08:33:53.707Z,23.34
2023-05-21T08:37:06.799Z,23.40
2023-05-21T08:40:26.794Z,23.73
2023-05-21T08:43:39.724Z,23.73
2023-05-21T08:46:52.228Z,23.78
2023-05-21T08:50:05.314Z,23.70
2023-05-21T08:53:27.528Z,24.01
2023-05-21T08:56:45.769Z,24.16
2023-05-21T08:59:59.327Z,24.28
2023-05-21T09:03:13.741Z,24.35
2023-05-21T09:06:26.471Z,24.47
2023-05-21T09:10:05.228Z,24.45
2023-05-21T09:13:18.570Z,24.42
2023-05-21T09:16:31.710Z,24.61
2023-05-21T09:20:18.960Z,24.80
2023-05-21T09:23:31.681Z,24.65
2023-05-21T09:26:44.346Z,24.65
2023-05-21T09:29:58.069Z,24.86
2023-05-21T09:33:11.970Z,25.00
2023-05-21T09:36:24.876Z,25.24
2023-05-21T09:39:37.320Z,25.22
2023-05-21T09:42:54.248Z,25.12
2023-05-21T09:46:06.488Z,25.35
2023-05-21T09:49:26.416Z,25.48
2023-05-21T09:52:41.904Z,25.58
2023-05-21T09:55:56.577Z,25.55
2023-05-21T09:59:08.963Z,25.72
2023-05-21T10:02:22.717Z,25.78
2023-05-21T10:05:35.725Z,25.53
2023-05-21T10:08:48.720Z,25.99
2023-05-21T10:12:01.430Z,26.00
2023-05-21T10:15:17.539Z,26.26
2023-05-21T10:18:30.837Z,26.17
2023-05-21T10:21:43.631Z,26.35
2023-05-21T10:24:56.306Z,26.62
2023-05-21T10:28:08.694Z,26.72
2023-05-21T10:31:21.369Z,26.97
2023-05-21T10:34:33.751Z,26.55
2023-05-21T10:37:46.691Z,27.19
2023-05-21T10:40:59.182Z,27.29
2023-05-21T10:44:36.840Z,27.45
2023-05-21T10:48:27.215Z,27.21
2023-05-21T10:51:42.836Z,27.47
2023-05-21T10:55:11.884Z,27.49
2023-05-21T10:58:39.854Z,27.33
2023-05-21T11:01:55.401Z,27.23
2023-05-21T11:05:08.245Z,27.50
2023-05-21T11:08:27.657Z,27.58
2023-05-21T11:11:53.995Z,27.60
2023-05-21T11:15:07.093Z,27.77
2023-05-21T11:18:19.785Z,27.90
2023-05-21T11:21:33.981Z,27.94
2023-05-21T11:24:47.761Z,27.88
2023-05-21T11:28:05.862Z,28.10
2023-05-21T11:31:24.486Z,28.06
2023-05-21T11:34:46.591Z,28.25
2023-05-21T11:37:59.239Z,27.42
2023-05-21T11:41:11.644Z,28.01
2023-05-21T11:44:50.851Z,28.15
2023-05-21T11:48:03.419Z,28.45
2023-05-21T11:51:16.122Z,28.36
2023-05-21T11:54:33.987Z,28.44
2023-05-21T11:57:48.113Z,28.54
2023-05-21T12:01:00.757Z,28.48
2023-05-21T12:04:13.523Z,28.46
2023-05-21T12:07:32.153Z,28.72
2023-05-21T12:10:46.202Z,28.86
2023-05-21T12:13:58.717Z,29.00
2023-05-21T12:17:13.528Z,29.02
2023-05-21T12:20:27.137Z,29.01
2023-05-21T12:23:39.815Z,29.26
2023-05-21T12:26:52.204Z,29.20
2023-05-21T12:30:05.339Z,29.22
2023-05-21T12:33:18.478Z,29.11
2023-05-21T12:36:34.253Z,29.19
2023-05-21T12:39:47.600Z,29.30
2023-05-21T12:43:00.399Z,29.41
2023-05-21T12:46:17.416Z,29.34
2023-05-21T12:49:38.793Z,29.13
2023-05-21T12:52:54.735Z,29.06
2023-05-21T12:56:16.610Z,29.42
2023-05-21T12:59:28.957Z,29.77
2023-05-21T13:02:42.387Z,29.71
2023-05-21T13:06:01.486Z,30.31
2023-05-21T13:09:14.189Z,30.67
2023-05-21T13:12:28.476Z,30.67
2023-05-21T13:15:41.220Z,31.16
2023-05-21T13:18:53.669Z,30.78
2023-05-21T13:22:07.287Z,29.45
2023-05-21T13:25:21.518Z,30.10
2023-05-21T13:28:34.387Z,30.75
2023-05-21T13:31:46.777Z,31.34
2023-05-21T13:34:59.420Z,32.14
2023-05-21T13:38:11.799Z,31.73
2023-05-21T13:41:24.462Z,30.97
2023-05-21T13:44:36.804Z,30.70
2023-05-21T13:47:49.559Z,30.72
2023-05-21T13:51:01.962Z,31.37
2023-05-21T13:54:15.805Z,31.98
2023-05-21T13:57:30.730Z,32.40
2023-05-21T14:00:43.592Z,32.35
2023-05-21T14:03:56.298Z,32.47
2023-05-21T14:07:08.815Z,32.40
2023-05-21T14:10:21.543Z,32.63
2023-05-21T14:13:33.879Z,32.35
2023-05-21T14:16:47.356Z,31.97
2023-05-21T14:19:59.826Z,31.97
2023-05-21T14:23:12.564Z,31.88
2023-05-21T14:26:27.608Z,32.51
2023-05-21T14:29:41.677Z,32.92
2023-05-21T14:32:56.619Z,32.12
2023-05-21T14:36:10.658Z,31.80
2023-05-21T14:39:23.175Z,32.41
2023-05-21T14:42:35.877Z,32.46
2023-05-21T14:45:49.708Z,32.67
2023-05-21T14:49:03.780Z,32.65
2023-05-21T14:52:16.168Z,31.82
2023-05-21T14:55:29.676Z,31.16
2023-05-21T14:58:42.144Z,31.20
2023-05-21T15:01:54.966Z,31.96
2023-05-21T15:05:10.485Z,32.12
2023-05-21T15:08:23.170Z,31.84
2023-05-21T15:11:36.006Z,31.87
2023-05-21T15:14:50.964Z,32.11
2023-05-21T15:18:03.462Z,32.35
2023-05-21T15:21:16.220Z,32.02
2023-05-21T15:24:28.680Z,31.38
2023-05-21T15:27:41.385Z,31.31
2023-05-21T15:30:53.787Z,32.18
2023-05-21T15:34:06.507Z,31.79
2023-05-21T15:37:19.171Z,31.96
2023-05-21T15:40:32.325Z,32.16
2023-05-21T15:43:46.206Z,32.11
2023-05-21T15:46:58.921Z,32.26
2023-05-21T15:50:12.209Z,32.53
2023-05-21T15:53:24.931Z,32.21
2023-05-21T15:56:37.396Z,32.43
2023-05-21T15:59:50.788Z,32.43
2023-05-21T16:03:03.311Z,32.42
2023-05-21T16:06:16.183Z,32.77
2023-05-21T16:09:28.575Z,32.78
2023-05-21T16:12:41.214Z,32.54
2023-05-21T16:15:53.610Z,32.33
2023-05-21T16:19:06.409Z,32.60
2023-05-21T16:22:20.818Z,32.61
2023-05-21T16:25:35.719Z,32.39
2023-05-21T16:28:48.509Z,32.50
2023-05-21T16:32:01.243Z,32.02
2023-05-21T16:35:13.772Z,31.46
2023-05-21T16:38:26.465Z,31.31
2023-05-21T16:41:38.830Z,31.26
2023-05-21T16:44:51.929Z,31.09
2023-05-21T16:48:04.710Z,31.45
2023-05-21T16:51:17.478Z,31.02
2023-05-21T16:54:29.892Z,30.90
2023-05-21T16:57:42.550Z,30.48
2023-05-21T17:00:54.946Z,30.56
2023-05-21T17:04:07.773Z,30.54
2023-05-21T17:07:20.407Z,30.39
2023-05-21T17:10:33.927Z,30.25
2023-05-21T17:13:48.137Z,30.10
2023-05-21T17:17:00.919Z,30.00
2023-05-21T17:20:13.540Z,29.85
2023-05-21T17:23:26.231Z,29.46
2023-05-21T17:26:38.650Z,29.41
2023-05-21T17:29:52.546Z,29.20
2023-05-21T17:33:06.535Z,29.05
2023-05-21T17:36:19.414Z,28.88
2023-05-21T17:39:31.848Z,28.53
2023-05-21T17:42:44.530Z,28.21
2023-05-21T17:45:56.917Z,27.97
2023-05-21T17:49:09.637Z,27.46
2023-05-21T17:52:22.065Z,27.29
2023-05-21T17:55:34.772Z,26.92
2023-05-21T17:58:47.273Z,26.53
2023-05-21T18:02:01.645Z,26.15
2023-05-21T18:05:14.547Z,25.39
2023-05-21T18:08:27.079Z,25.14
2023-05-21T18:11:39.727Z,24.77
2023-05-21T18:14:52.110Z,24.55
2023-05-21T18:18:04.881Z,24.39
2023-05-21T18:21:17.505Z,24.25
2023-05-21T18:24:30.237Z,24.03
2023-05-21T18:27:42.686Z,23.69
2023-05-21T18:30:57.053Z,23.49
2023-05-21T18:34:09.607Z,23.09
2023-05-21T18:37:22.362Z,23.07
2023-05-21T18:40:35.076Z,23.09
2023-05-21T18:43:47.876Z,22.91
2023-05-21T18:47:00.338Z,22.80
2023-05-21T18:50:14.276Z,22.78
2023-05-21T18:53:26.752Z,22.47
2023-05-21T18:56:39.460Z,22.20
2023-05-21T18:59:51.873Z,22.15
2023-05-21T19:03:04.617Z,22.09
2023-05-21T19:06:17.125Z,21.67
2023-05-21T19:09:29.832Z,21.58
2023-05-21T19:12:43.480Z,21.56
2023-05-21T19:15:57.426Z,21.25
2023-05-21T19:19:09.978Z,21.16
2023-05-21T19:22:26.314Z,21.02
2023-05-21T19:25:38.795Z,20.86
2023-05-21T19:28:53.821Z,20.73
2023-05-21T19:32:07.015Z,20.53
2023-05-21T19:35:20.640Z,20.42
2023-05-21T19:38:33.065Z,20.40
2023-05-21T19:41:45.747Z,20.32
2023-05-21T19:44:58.217Z,20.20
2023-05-21T19:48:11.136Z,19.96
2023-05-21T19:51:23.530Z,19.93
2023-05-21T19:54:36.405Z,19.88
2023-05-21T19:57:48.962Z,19.86
2023-05-21T20:01:03.490Z,19.86
2023-05-21T20:04:16.342Z,19.75
2023-05-21T20:07:28.851Z,19.69
2023-05-21T20:10:41.698Z,19.59
2023-05-21T20:13:54.388Z,19.50
2023-05-21T20:17:07.365Z,19.38
2023-05-21T20:20:22.991Z,19.27
2023-05-21T20:23:35.764Z,19.22
2023-05-21T20:26:48.175Z,19.21
2023-05-21T20:30:00.961Z,19.15
2023-05-21T20:33:13.638Z,19.11
2023-05-21T20:36:27.214Z,19.08
2023-05-21T20:39:39.712Z,19.02
2023-05-21T20:42:54.088Z,19.02
2023-05-21T20:46:06.494Z,18.99
2023-05-21T20:49:19.286Z,19.01
2023-05-21T20:52:31.753Z,18.88
2023-05-21T20:55:47.040Z,19.05
2023-05-21T20:58:59.625Z,18.91
2023-05-21T21:02:12.994Z,19.02
2023-05-21T21:05:25.431Z,18.94
2023-05-21T21:08:40.330Z,18.96
2023-05-21T21:11:52.840Z,18.83
2023-05-21T21:15:06.119Z,18.74
2023-05-21T21:18:18.513Z,18.70
2023-05-21T21:21:31.854Z,18.65
2023-05-21T21:24:44.549Z,18.61
2023-05-21T21:27:57.235Z,18.64
2023-05-21T21:31:09.650Z,18.91
2023-05-21T21:34:24.301Z,19.05
2023-05-21T21:37:36.771Z,19.29
2023-05-21T21:40:49.566Z,19.49
2023-05-21T21:44:02.127Z,19.60
2023-05-21T21:47:14.829Z,19.62
2023-05-21T21:50:27.284Z,19.63
2023-05-21T21:53:39.996Z,19.62
2023-05-21T21:56:52.364Z,19.38
2023-05-21T22:00:17.029Z,19.40
2023-05-21T22:03:34.559Z,19.21
2023-05-21T22:06:46.923Z,19.28
2023-05-21T22:09:59.569Z,19.08
2023-05-21T22:13:12.868Z,19.08
2023-05-21T22:16:25.557Z,19.24
2023-05-21T22:19:37.938Z,19.03
2023-05-21T22:22:50.606Z,19.18
2023-05-21T22:26:03.392Z,19.13
2023-05-21T22:29:16.097Z,19.15
2023-05-21T22:32:28.465Z,19.12
2023-05-21T22:35:41.175Z,19.16
2023-05-21T22:38:53.641Z,19.03
2023-05-21T22:42:06.480Z,19.14
2023-05-21T22:45:19.378Z,19.02
2023-05-21T22:48:32.106Z,18.88
2023-05-21T22:51:45.013Z,18.80
2023-05-21T22:54:58.805Z,18.85
2023-05-21T22:58:11.216Z,19.04
2023-05-21T23:01:24.057Z,18.80
2023-05-21T23:04:43.827Z,18.89
2023-05-21T23:07:56.851Z,18.82
2023-05-21T23:11:09.215Z,18.63
2023-05-21T23:14:22.091Z,18.62
2023-05-21T23:17:34.608Z,18.68
2023-05-21T23:20:47.382Z,18.76
2023-05-21T23:23:59.730Z,18.70
2023-05-21T23:27:12.441Z,18.50
2023-05-21T23:30:24.841Z,18.55
2023-05-21T23:33:37.575Z,18.53
2023-05-21T23:36:49.979Z,18.61
2023-05-21T23:40:02.650Z,18.54
2023-05-21T23:43:15.165Z,18.24
2023-05-21T23:46:27.915Z,18.35
2023-05-21T23:49:40.399Z,18.41
2023-05-21T23:52:53.327Z,18.54
2023-05-21T23:56:06.020Z,18.60
2023-05-21T23:59:18.779Z,18.63
